Time;durP1;ratioP1;P1;durP2;ratioP2;P2;SDS_P1;SDS_P2;PMS_P1;PMS_P2;Temp;Humidity;BMP_temperature;BMP_pressure;BME280_temperature;BME280_humidity;BME280_pressure;Samples;Min_cycle;Max_cycle;Signal;HPM_P1;HPM_P2
2021/08/18 00:01:45;;;;;;;12.87;10.00;;;15.90;99.90;;;;;;5003259;28;20199;-81
2021/08/18 00:04:11;;;;;;;13.73;10.83;;;16.00;99.90;;;;;;5023050;28;20171;-80
2021/08/18 00:06:37;;;;;;;16.60;11.17;;;16.00;99.90;;;;;;5003699;28;20174;-81
2021/08/18 00:09:03;;;;;;;12.97;10.20;;;16.00;99.90;;;;;;5003774;28;20186;-83
2021/08/18 00:11:29;;;;;;;14.47;10.13;;;16.00;99.90;;;;;;5002886;28;20580;-83
2021/08/18 00:13:54;;;;;;;16.07;11.03;;;16.00;99.90;;;;;;5003744;28;20191;-81
2021/08/18 00:16:24;;;;;;;14.90;10.13;;;16.00;99.90;;;;;;4995485;28;20661;-79
2021/08/18 00:18:52;;;;;;;16.93;10.80;;;16.00;99.90;;;;;;4999200;28;20183;-80
2021/08/18 00:21:19;;;;;;;14.97;10.40;;;16.00;99.90;;;;;;5008327;28;20795;-81
2021/08/18 00:23:45;;;;;;;17.13;10.27;;;16.00;99.90;;;;;;5023088;28;20178;-82
2021/08/18 00:26:11;;;;;;;13.47;10.40;;;16.10;99.90;;;;;;5020973;28;20182;-81
2021/08/18 00:28:46;;;;;;;17.83;11.83;;;16.00;99.90;;;;;;5020848;28;20175;-81
2021/08/18 00:31:16;;;;;;;17.00;12.73;;;16.10;99.90;;;;;;5024922;28;20538;-80
2021/08/18 00:33:44;;;;;;;17.63;11.70;;;16.20;99.90;;;;;;5024685;28;20178;-80
2021/08/18 00:36:10;;;;;;;21.23;12.87;;;16.10;99.90;;;;;;5005665;28;20186;-82
2021/08/18 00:38:35;;;;;;;16.63;11.77;;;16.10;99.90;;;;;;5005842;28;20171;-82
2021/08/18 00:41:11;;;;;;;18.07;11.77;;;16.00;99.90;;;;;;4992972;28;20245;-79
2021/08/18 00:43:48;;;;;;;14.60;11.63;;;16.00;99.90;;;;;;5007060;28;20175;-82
2021/08/18 00:46:17;;;;;;;17.03;11.47;;;16.10;99.90;;;;;;5024662;28;20174;-80
2021/08/18 00:48:44;;;;;;;14.90;11.70;;;16.10;99.90;;;;;;5006037;28;20212;-80
2021/08/18 00:51:11;;;;;;;18.50;12.10;;;16.10;99.90;;;;;;5025027;28;20257;-82
2021/08/18 00:53:37;;;;;;;13.73;10.67;;;16.10;99.90;;;;;;5023856;28;20276;-81
2021/08/18 00:56:03;;;;;;;15.63;11.83;;;16.10;99.90;;;;;;5009018;28;20205;-81
2021/08/18 00:58:29;;;;;;;17.43;11.43;;;16.20;99.90;;;;;;5002350;28;20179;-83
2021/08/18 01:00:56;;;;;;;18.47;11.90;;;16.20;99.90;;;;;;5025038;28;20187;-82
2021/08/18 01:03:23;;;;;;;17.90;12.07;;;16.20;99.90;;;;;;5012089;28;20190;-82
2021/08/18 01:05:48;;;;;;;19.70;13.30;;;16.30;99.90;;;;;;5029407;28;20189;-82
2021/08/18 01:08:14;;;;;;;19.63;12.73;;;16.20;99.90;;;;;;5029403;28;20193;-83
2021/08/18 01:10:40;;;;;;;19.13;12.60;;;16.20;99.90;;;;;;5018246;28;20179;-82
2021/08/18 01:13:06;;;;;;;16.80;11.87;;;16.20;99.90;;;;;;5010671;28;20192;-84
2021/08/18 01:15:33;;;;;;;16.83;12.00;;;16.10;99.90;;;;;;5003438;28;20282;-82
2021/08/18 01:18:01;;;;;;;16.83;12.30;;;16.20;99.90;;;;;;5004274;28;20182;-82
2021/08/18 01:20:33;;;;;;;17.43;12.43;;;16.20;99.90;;;;;;5003840;28;20199;-82
2021/08/18 01:23:00;;;;;;;19.37;13.33;;;16.20;99.90;;;;;;5018617;28;20286;-82
2021/08/18 01:25:26;;;;;;;18.83;13.37;;;16.10;99.90;;;;;;5005196;28;20183;-82
2021/08/18 01:27:59;;;;;;;15.27;12.23;;;16.00;99.90;;;;;;5023208;28;20179;-82
2021/08/18 01:30:26;;;;;;;22.60;13.73;;;16.10;99.90;;;;;;5022399;28;20695;-82
2021/08/18 01:33:01;;;;;;;18.13;12.63;;;16.10;99.90;;;;;;5038325;22;20684;-83
2021/08/18 01:35:30;;;;;;;17.33;12.87;;;16.10;99.90;;;;;;5022316;28;20206;-82
2021/08/18 01:37:57;;;;;;;21.10;14.03;;;16.20;99.90;;;;;;5021619;28;20170;-82
2021/08/18 01:40:23;;;;;;;25.00;13.57;;;16.10;99.90;;;;;;5021327;28;20605;-82
2021/08/18 01:42:50;;;;;;;20.43;13.90;;;16.20;99.90;;;;;;5022369;28;20210;-82
2021/08/18 01:45:29;;;;;;;19.20;13.50;;;16.10;99.90;;;;;;5000378;28;20228;-82
2021/08/18 01:47:55;;;;;;;19.07;13.30;;;16.10;99.90;;;;;;4991222;28;20175;-82
2021/08/18 01:50:22;;;;;;;22.10;13.87;;;16.10;99.90;;;;;;5021432;28;20244;-82
2021/08/18 01:52:53;;;;;;;20.43;14.10;;;16.10;99.90;;;;;;5001563;28;20205;-82
2021/08/18 01:55:20;;;;;;;19.00;13.53;;;16.20;99.90;;;;;;5021419;28;20545;-82
2021/08/18 01:57:46;;;;;;;18.40;14.23;;;16.10;99.90;;;;;;5021704;28;20183;-82
2021/08/18 02:00:13;;;;;;;19.30;14.17;;;16.10;99.90;;;;;;5021304;28;20302;-82
2021/08/18 02:02:39;;;;;;;18.07;13.47;;;16.10;99.90;;;;;;5003413;28;20210;-82
2021/08/18 02:05:09;;;;;;;18.97;12.87;;;16.00;99.90;;;;;;5021627;28;20228;-83
2021/08/18 02:07:36;;;;;;;23.70;14.77;;;15.90;99.90;;;;;;5017271;28;20683;-82
2021/08/18 02:10:05;;;;;;;19.83;13.43;;;15.70;99.90;;;;;;5003443;28;20224;-82
2021/08/18 02:12:31;;;;;;;21.83;14.90;;;15.80;99.90;;;;;;5020985;28;20210;-82
2021/08/18 02:14:56;;;;;;;17.97;13.73;;;15.70;99.90;;;;;;5026637;28;20205;-83
2021/08/18 02:17:22;;;;;;;22.03;14.67;;;15.70;99.90;;;;;;5024003;28;20207;-82
2021/08/18 02:19:48;;;;;;;24.67;14.30;;;15.70;99.90;;;;;;5012718;28;20175;-82
2021/08/18 02:22:13;;;;;;;22.37;15.20;;;15.70;99.90;;;;;;5014357;28;20272;-82
2021/08/18 02:24:39;;;;;;;20.83;13.93;;;15.60;99.90;;;;;;5000982;28;20175;-82
2021/08/18 02:27:05;;;;;;;19.83;14.90;;;15.60;99.90;;;;;;5002413;28;20274;-82
2021/08/18 02:29:30;;;;;;;23.13;14.23;;;15.50;99.90;;;;;;5020682;28;20194;-82
2021/08/18 02:31:56;;;;;;;22.97;14.30;;;15.60;99.90;;;;;;5020306;28;20299;-82
2021/08/18 02:34:22;;;;;;;23.77;14.13;;;15.70;99.90;;;;;;5002107;28;20196;-82
2021/08/18 02:36:47;;;;;;;21.33;14.60;;;15.60;99.90;;;;;;5006087;28;20197;-82
2021/08/18 02:39:13;;;;;;;18.77;13.83;;;15.50;99.90;;;;;;5031436;28;20184;-82
2021/08/18 02:41:39;;;;;;;21.77;15.20;;;15.60;99.90;;;;;;5020414;28;20563;-82
2021/08/18 02:44:04;;;;;;;25.20;15.23;;;15.60;99.90;;;;;;5021081;28;20768;-82
2021/08/18 02:46:30;;;;;;;25.57;14.90;;;15.60;99.90;;;;;;5020518;28;20179;-82
2021/08/18 02:48:56;;;;;;;20.90;14.80;;;15.60;99.90;;;;;;5025749;28;20235;-82
2021/08/18 02:51:21;;;;;;;27.37;16.00;;;15.60;99.90;;;;;;5010978;28;20204;-82
2021/08/18 02:53:47;;;;;;;21.70;14.60;;;15.60;99.90;;;;;;5015831;28;20168;-82
2021/08/18 02:56:12;;;;;;;25.27;16.03;;;15.70;99.90;;;;;;5020609;28;20171;-82
2021/08/18 02:58:38;;;;;;;22.23;15.77;;;15.60;99.90;;;;;;5019929;28;20228;-82
2021/08/18 03:01:04;;;;;;;19.97;15.10;;;15.60;99.90;;;;;;5020150;28;20205;-82
2021/08/18 03:03:29;;;;;;;24.13;15.07;;;15.60;99.90;;;;;;5020404;28;20238;-82
2021/08/18 03:05:55;;;;;;;28.73;15.60;;;15.60;99.90;;;;;;5016910;28;20182;-82
2021/08/18 03:08:20;;;;;;;22.10;15.03;;;15.50;99.90;;;;;;5019944;28;20186;-82
2021/08/18 03:10:46;;;;;;;25.70;15.17;;;15.50;99.90;;;;;;5020079;28;20658;-82
2021/08/18 03:13:12;;;;;;;27.77;16.87;;;15.60;99.90;;;;;;5002381;28;20251;-82
2021/08/18 03:15:37;;;;;;;21.13;14.83;;;15.60;99.90;;;;;;5002410;28;20203;-82
2021/08/18 03:18:03;;;;;;;22.03;14.73;;;15.60;99.90;;;;;;5011745;28;20179;-80
2021/08/18 03:20:29;;;;;;;24.33;15.17;;;15.70;99.90;;;;;;5003428;28;20176;-79
2021/08/18 03:22:54;;;;;;;24.90;15.50;;;15.70;99.90;;;;;;5017825;28;20202;-81
2021/08/18 03:25:20;;;;;;;22.37;15.17;;;15.70;99.90;;;;;;5001951;28;20262;-82
2021/08/18 03:27:46;;;;;;;26.03;15.00;;;15.60;99.90;;;;;;5001785;28;20247;-82
2021/08/18 03:30:12;;;;;;;23.10;14.80;;;15.50;99.90;;;;;;5013254;28;20555;-82
2021/08/18 03:32:38;;;;;;;22.20;15.17;;;15.40;99.90;;;;;;5026666;28;20220;-81
2021/08/18 03:35:05;;;;;;;25.60;15.30;;;15.50;99.90;;;;;;5015262;28;20617;-82
2021/08/18 03:37:30;;;;;;;27.97;16.47;;;15.60;99.90;;;;;;5015499;28;20593;-82
2021/08/18 03:39:56;;;;;;;23.47;15.27;;;15.50;99.90;;;;;;5001883;28;20189;-82
2021/08/18 03:42:22;;;;;;;26.67;16.67;;;15.50;99.90;;;;;;5019692;28;20224;-82
2021/08/18 03:44:47;;;;;;;23.60;15.30;;;15.50;99.90;;;;;;5019444;28;20178;-82
2021/08/18 03:47:13;;;;;;;22.17;14.50;;;15.50;99.90;;;;;;5019672;28;20337;-82
2021/08/18 03:49:39;;;;;;;24.00;15.40;;;15.30;99.90;;;;;;5002061;28;20264;-82
2021/08/18 03:52:06;;;;;;;20.30;14.30;;;15.40;99.90;;;;;;5019439;28;20204;-82
2021/08/18 03:54:32;;;;;;;22.77;14.70;;;15.50;99.90;;;;;;5008178;28;20634;-82
2021/08/18 03:56:58;;;;;;;20.97;14.90;;;15.40;99.90;;;;;;5027305;28;20177;-82
2021/08/18 03:59:24;;;;;;;22.43;14.90;;;15.30;99.90;;;;;;5027166;28;20193;-82
2021/08/18 04:01:49;;;;;;;23.30;14.40;;;15.20;99.90;;;;;;5017869;28;20195;-82
2021/08/18 04:04:15;;;;;;;22.77;14.50;;;15.20;99.90;;;;;;5005458;28;20192;-82
2021/08/18 04:06:41;;;;;;;21.63;14.33;;;15.30;99.90;;;;;;5014900;28;20194;-82
2021/08/18 04:09:07;;;;;;;22.77;15.33;;;15.40;99.90;;;;;;5028289;28;20548;-82
2021/08/18 04:11:32;;;;;;;25.73;14.93;;;15.30;99.90;;;;;;5023257;28;20195;-82
2021/08/18 04:13:58;;;;;;;21.77;15.10;;;15.20;99.90;;;;;;5001662;28;20197;-82
2021/08/18 04:16:23;;;;;;;23.47;14.87;;;15.20;99.90;;;;;;5000367;28;20270;-82
2021/08/18 04:18:49;;;;;;;21.97;15.07;;;15.20;99.90;;;;;;5001475;28;20206;-83
2021/08/18 04:21:15;;;;;;;23.17;14.57;;;15.20;99.90;;;;;;5001482;28;20186;-82
2021/08/18 04:23:40;;;;;;;20.83;14.30;;;15.40;99.90;;;;;;5019421;28;20171;-82
2021/08/18 04:26:06;;;;;;;21.40;14.87;;;15.30;99.90;;;;;;5027642;28;20178;-82
2021/08/18 04:28:32;;;;;;;21.90;14.07;;;15.40;99.90;;;;;;5007339;28;20177;-82
2021/08/18 04:31:01;;;;;;;20.00;13.53;;;15.40;99.90;;;;;;5032341;28;20178;-83
2021/08/18 04:33:26;;;;;;;21.30;14.60;;;15.40;99.90;;;;;;5001460;28;20238;-82
2021/08/18 04:35:52;;;;;;;18.37;13.43;;;15.40;99.90;;;;;;5000605;28;20600;-82
2021/08/18 04:38:18;;;;;;;20.87;13.43;;;15.30;99.90;;;;;;5018695;28;20206;-82
2021/08/18 04:40:43;;;;;;;19.97;13.30;;;15.30;99.90;;;;;;5004185;28;20265;-82
2021/08/18 04:43:13;;;;;;;19.67;14.63;;;15.40;99.90;;;;;;5029860;28;20198;-82
2021/08/18 04:45:40;;;;;;;19.93;13.83;;;15.40;99.90;;;;;;5018751;28;20186;-82
2021/08/18 04:48:06;;;;;;;21.37;14.20;;;15.40;99.90;;;;;;5018746;28;20522;-82
2021/08/18 04:50:32;;;;;;;17.87;13.27;;;15.50;99.90;;;;;;5001824;28;20176;-82
2021/08/18 04:52:58;;;;;;;21.50;13.50;;;15.40;99.90;;;;;;5001309;28;20276;-82
2021/08/18 04:55:24;;;;;;;19.03;13.70;;;15.50;99.90;;;;;;5019640;28;20199;-82
2021/08/18 04:57:49;;;;;;;16.83;12.03;;;15.60;99.90;;;;;;5018585;28;20235;-82
2021/08/18 05:00:18;;;;;;;19.67;12.63;;;15.60;99.90;;;;;;5018704;28;20677;-82
2021/08/18 05:02:45;;;;;;;18.13;12.10;;;15.60;99.90;;;;;;5001331;28;20204;-82
2021/08/18 05:05:11;;;;;;;16.90;11.30;;;15.60;99.90;;;;;;5019165;28;20179;-83
2021/08/18 05:07:37;;;;;;;16.90;11.87;;;15.60;99.90;;;;;;5001419;28;20237;-82
2021/08/18 05:10:03;;;;;;;18.10;12.30;;;15.60;99.90;;;;;;5017183;28;20238;-82
2021/08/18 05:12:29;;;;;;;16.27;11.80;;;15.70;99.90;;;;;;5023914;28;20199;-82
2021/08/18 05:14:55;;;;;;;18.93;11.90;;;15.70;99.90;;;;;;5000942;28;20208;-82
2021/08/18 05:17:20;;;;;;;16.93;11.57;;;15.70;99.90;;;;;;5021918;28;20180;-82
2021/08/18 05:19:46;;;;;;;15.97;11.00;;;15.70;99.90;;;;;;5022395;28;20177;-82
2021/08/18 05:22:12;;;;;;;18.77;11.60;;;15.80;99.90;;;;;;5021480;28;20691;-82
2021/08/18 05:24:37;;;;;;;15.63;11.07;;;15.80;99.90;;;;;;5005165;28;20209;-82
2021/08/18 05:27:04;;;;;;;15.90;11.07;;;15.80;99.90;;;;;;5021854;28;20223;-82
2021/08/18 05:29:29;;;;;;;15.37;10.80;;;15.80;99.90;;;;;;5004408;28;20183;-82
2021/08/18 05:31:55;;;;;;;14.60;11.30;;;15.70;99.90;;;;;;5003972;28;20675;-82
2021/08/18 05:34:21;;;;;;;14.13;10.77;;;15.80;99.90;;;;;;5004398;28;20194;-82
2021/08/18 05:36:46;;;;;;;20.40;11.83;;;15.70;99.90;;;;;;5021645;28;20171;-82
2021/08/18 05:39:12;;;;;;;16.10;11.20;;;15.70;99.90;;;;;;5026050;28;20182;-82
2021/08/18 05:41:38;;;;;;;16.70;11.97;;;15.80;99.90;;;;;;5032007;28;20221;-82
2021/08/18 05:44:03;;;;;;;16.53;10.70;;;15.80;99.90;;;;;;5024336;28;20179;-82
2021/08/18 05:46:29;;;;;;;14.20;11.47;;;15.80;99.90;;;;;;5015051;28;20181;-79
2021/08/18 05:48:55;;;;;;;15.93;10.67;;;15.70;99.90;;;;;;5013270;28;20585;-79
2021/08/18 05:51:21;;;;;;;15.13;10.03;;;15.70;99.90;;;;;;5025030;28;20224;-79
2021/08/18 05:53:50;;;;;;;16.93;11.10;;;15.70;99.90;;;;;;5008370;28;20560;-76
2021/08/18 05:56:17;;;;;;;14.97;10.53;;;15.70;99.90;;;;;;4999485;28;20182;-80
2021/08/18 05:58:43;;;;;;;12.40;9.83;;;15.60;99.90;;;;;;5011752;28;20175;-79
2021/08/18 06:01:08;;;;;;;15.73;9.87;;;15.70;99.90;;;;;;5020668;28;20614;-79
2021/08/18 06:03:35;;;;;;;17.23;11.03;;;15.60;99.90;;;;;;5024876;28;20180;-77
2021/08/18 06:06:01;;;;;;;15.17;10.40;;;15.60;99.90;;;;;;5020779;28;20521;-78
2021/08/18 06:08:26;;;;;;;12.70;8.80;;;15.50;99.90;;;;;;5006683;28;20205;-77
2021/08/18 06:10:52;;;;;;;10.73;9.00;;;15.50;99.90;;;;;;5023986;28;20182;-79
2021/08/18 06:13:18;;;;;;;11.90;8.83;;;15.60;99.90;;;;;;5017241;28;20276;-77
2021/08/18 06:15:43;;;;;;;12.17;9.13;;;15.60;99.90;;;;;;5018223;28;20621;-79
2021/08/18 06:18:09;;;;;;;15.27;9.30;;;15.70;99.90;;;;;;5001657;28;20197;-79
2021/08/18 06:20:35;;;;;;;12.10;8.80;;;15.60;99.90;;;;;;5019301;28;20187;-79
2021/08/18 06:23:01;;;;;;;12.40;8.30;;;15.70;99.90;;;;;;5015994;28;20194;-79
2021/08/18 06:25:28;;;;;;;10.10;7.80;;;15.50;99.90;;;;;;5004073;28;20191;-79
2021/08/18 06:27:53;;;;;;;12.70;8.20;;;15.50;99.90;;;;;;5028562;28;20182;-79
2021/08/18 06:30:19;;;;;;;10.20;9.17;;;15.40;99.90;;;;;;5015764;28;20558;-77
2021/08/18 06:32:45;;;;;;;12.67;9.23;;;15.40;99.90;;;;;;5021968;28;20240;-77
2021/08/18 06:35:10;;;;;;;12.87;9.10;;;15.50;99.90;;;;;;5021598;28;20256;-77
2021/08/18 06:37:36;;;;;;;11.83;8.63;;;15.60;99.90;;;;;;5028785;28;20183;-77
2021/08/18 06:40:03;;;;;;;11.93;7.87;;;15.60;99.90;;;;;;5015144;28;20179;-77
2021/08/18 06:42:30;;;;;;;11.17;7.77;;;15.60;99.90;;;;;;5000246;28;20200;-77
2021/08/18 06:44:55;;;;;;;8.20;7.20;;;15.60;99.90;;;;;;5007758;28;20185;-77
2021/08/18 06:47:21;;;;;;;10.13;8.20;;;15.70;99.90;;;;;;5016542;28;20573;-78
2021/08/18 06:49:47;;;;;;;12.63;7.90;;;15.80;99.90;;;;;;5027287;28;20186;-77
2021/08/18 06:52:12;;;;;;;8.87;7.50;;;15.60;99.90;;;;;;5027806;28;20205;-77
2021/08/18 06:54:38;;;;;;;10.60;7.87;;;15.70;99.90;;;;;;5005760;28;20198;-79
2021/08/18 06:57:04;;;;;;;11.57;7.43;;;15.60;99.90;;;;;;5028252;28;20234;-79
2021/08/18 06:59:30;;;;;;;9.30;7.10;;;15.60;99.90;;;;;;5030613;28;20175;-78
2021/08/18 07:01:56;;;;;;;9.13;7.17;;;15.60;99.90;;;;;;4996677;28;20661;-76
2021/08/18 07:04:21;;;;;;;9.47;7.27;;;15.50;99.90;;;;;;5014686;28;20212;-79
2021/08/18 07:06:47;;;;;;;7.97;7.03;;;15.50;99.90;;;;;;5007928;28;20178;-79
2021/08/18 07:09:13;;;;;;;10.83;7.20;;;15.50;99.90;;;;;;5025307;28;20181;-79
2021/08/18 07:11:39;;;;;;;10.33;6.20;;;15.50;99.90;;;;;;5022494;28;20693;-79
2021/08/18 07:14:05;;;;;;;10.53;6.67;;;15.50;99.90;;;;;;5010154;28;20236;-79
2021/08/18 07:16:33;;;;;;;7.70;6.47;;;15.60;99.90;;;;;;5004450;28;20171;-79
2021/08/18 07:18:59;;;;;;;8.37;6.70;;;15.70;99.90;;;;;;5029856;28;20188;-82
2021/08/18 07:21:25;;;;;;;10.73;6.80;;;15.70;99.90;;;;;;5034308;28;20208;-82
2021/08/18 07:23:52;;;;;;;7.07;6.30;;;15.70;99.90;;;;;;5027439;28;20162;-82
2021/08/18 07:26:21;;;;;;;7.83;5.63;;;15.70;99.90;;;;;;5018523;28;20171;-82
2021/08/18 07:28:47;;;;;;;10.70;6.07;;;15.70;99.90;;;;;;5026162;28;20545;-82
2021/08/18 07:31:12;;;;;;;8.37;6.47;;;15.80;99.90;;;;;;5031072;28;20190;-82
2021/08/18 07:33:38;;;;;;;7.37;6.23;;;15.80;99.90;;;;;;5029733;23;20234;-80
2021/08/18 07:36:10;;;;;;;10.00;6.17;;;15.90;99.90;;;;;;5000787;28;20203;-81
2021/08/18 07:38:36;;;;;;;7.47;6.30;;;16.00;99.90;;;;;;4983702;28;20177;-83
2021/08/18 07:41:12;;;;;;;6.80;6.17;;;16.00;99.90;;;;;;5000224;28;20176;-80
2021/08/18 07:43:37;;;;;;;6.43;5.73;;;16.00;99.90;;;;;;5000910;28;20232;-82
2021/08/18 07:46:03;;;;;;;7.23;5.83;;;16.00;99.90;;;;;;5002365;28;20530;-81
2021/08/18 07:48:38;;;;;;;9.03;6.80;;;16.00;99.90;;;;;;5002271;28;20187;-81
2021/08/18 07:51:11;;;;;;;7.10;6.03;;;16.00;99.90;;;;;;5018766;28;20167;-80
2021/08/18 07:53:41;;;;;;;6.27;5.57;;;16.00;99.90;;;;;;5007750;28;20240;-81
2021/08/18 07:56:07;;;;;;;6.80;5.83;;;16.10;99.90;;;;;;5008533;28;20249;-84
2021/08/18 07:58:39;;;;;;;7.63;5.87;;;16.00;99.90;;;;;;5027346;28;20182;-80
2021/08/18 08:01:08;;;;;;;6.30;5.57;;;15.90;99.90;;;;;;5029758;28;20183;-81
2021/08/18 08:03:33;;;;;;;7.63;5.87;;;15.90;99.90;;;;;;5029219;28;20262;-86
2021/08/18 08:05:59;;;;;;;10.77;5.43;;;15.90;99.90;;;;;;5029732;28;20179;-81
2021/08/18 08:08:30;;;;;;;6.60;5.57;;;15.90;99.90;;;;;;5030496;28;20185;-80
2021/08/18 08:10:56;;;;;;;6.07;5.53;;;15.90;99.90;;;;;;5030019;28;20208;-81
2021/08/18 08:13:21;;;;;;;7.63;4.73;;;16.00;99.90;;;;;;5056345;23;20697;-82
2021/08/18 08:15:47;;;;;;;6.47;5.10;;;16.00;99.90;;;;;;4999047;28;20548;-83
2021/08/18 08:19:01;;;;;;;14.97;5.50;;;16.00;99.90;;;;;;4998136;28;20179;-80
2021/08/18 08:21:10;;;;;;;7.47;6.00;;;16.10;99.90;;;;;;4981988;28;20191;-80
2021/08/18 08:23:39;;;;;;;8.13;5.60;;;16.10;99.90;;;;;;5144461;23;20718;-81
2021/08/18 08:26:13;;;;;;;7.37;5.60;;;16.10;99.90;;;;;;5008323;28;20195;-80
2021/08/18 08:28:42;;;;;;;6.63;5.27;;;16.10;99.90;;;;;;4991852;28;20178;-80
2021/08/18 08:31:08;;;;;;;7.27;5.50;;;16.20;99.90;;;;;;5010275;28;20250;-83
2021/08/18 08:33:43;;;;;;;7.03;5.53;;;16.10;99.90;;;;;;5008085;28;20212;-82
2021/08/18 08:36:09;;;;;;;9.23;5.73;;;16.10;99.90;;;;;;4987264;28;20195;-80
2021/08/18 08:38:40;;;;;;;5.90;5.27;;;16.20;99.90;;;;;;4999549;28;20182;-81
2021/08/18 08:41:09;;;;;;;8.87;5.53;;;16.10;99.90;;;;;;4983956;28;20190;-81
2021/08/18 08:43:37;;;;;;;6.27;5.33;;;16.20;99.90;;;;;;5001570;28;20223;-82
2021/08/18 08:46:10;;;;;;;9.50;5.50;;;16.10;99.90;;;;;;4984495;28;20179;-81
2021/08/18 08:48:41;;;;;;;8.53;5.40;;;16.20;99.90;;;;;;5001866;28;20172;-82
2021/08/18 08:51:10;;;;;;;5.73;5.03;;;16.20;99.90;;;;;;5007579;28;20178;-81
2021/08/18 08:53:36;;;;;;;6.17;4.67;;;16.20;99.90;;;;;;4986218;28;20206;-83
2021/08/18 08:56:07;;;;;;;9.20;5.37;;;16.40;99.90;;;;;;5003231;28;20203;-81
2021/08/18 08:58:33;;;;;;;8.47;5.30;;;16.40;99.90;;;;;;5006616;28;20187;-84
2021/08/18 09:00:59;;;;;;;7.07;5.60;;;16.50;99.90;;;;;;5007677;28;20198;-83
2021/08/18 09:03:29;;;;;;;6.83;5.47;;;16.50;99.90;;;;;;4988817;28;20548;-82
2021/08/18 09:06:05;;;;;;;6.73;5.43;;;16.70;99.90;;;;;;4986494;28;20191;-86
2021/08/18 09:08:51;;;;;;;7.03;4.83;;;16.70;99.90;;;;;;4986185;28;20551;-82
2021/08/18 09:11:23;;;;;;;8.17;5.87;;;16.60;99.90;;;;;;5004507;28;20680;-82
2021/08/18 09:13:55;;;;;;;5.60;5.00;;;16.50;99.90;;;;;;4989572;28;20232;-82
2021/08/18 09:17:12;;;;;;;;;;;;;;;;;;;;;
2021/08/18 09:20:39;;;;;;;8.63;5.30;;;16.60;99.90;;;;;;4906790;29;20666;-79
2021/08/18 09:23:11;;;;;;;8.97;5.13;;;16.50;99.90;;;;;;5019924;23;20235;-81
2021/08/18 09:25:55;;;;;;;6.67;5.50;;;16.50;99.90;;;;;;5003537;28;20171;-82
2021/08/18 09:28:21;;;;;;;9.03;5.20;;;16.50;99.90;;;;;;5000122;28;20208;-81
2021/08/18 09:30:56;;;;;;;9.33;4.93;;;16.50;99.90;;;;;;5007740;28;20176;-82
2021/08/18 09:33:22;;;;;;;7.20;4.90;;;16.60;99.90;;;;;;5023995;28;20225;-83
2021/08/18 09:36:33;;;;;;;7.63;5.30;;;16.60;99.90;;;;;;4993149;28;20193;-82
2021/08/18 09:39:21;;;;;;;7.27;5.00;;;16.70;99.90;;;;;;5015073;28;20539;-80
2021/08/18 09:41:52;;;;;;;8.60;5.57;;;16.70;99.90;;;;;;5006974;28;20181;-82
2021/08/18 09:44:22;;;;;;;8.27;5.33;;;16.70;99.90;;;;;;5003083;28;20214;-81
2021/08/18 09:47:06;;;;;;;8.17;4.67;;;16.90;99.90;;;;;;5015653;28;20194;-81
2021/08/18 09:49:51;;;;;;;6.97;5.00;;;17.00;99.90;;;;;;5007560;28;20192;-81
2021/08/18 09:52:24;;;;;;;7.07;5.27;;;17.10;99.90;;;;;;4993517;28;20684;-81
2021/08/18 09:55:42;;;;;;;8.97;5.33;;;17.20;99.90;;;;;;4995040;28;20199;-80
2021/08/18 09:58:30;;;;;;;7.47;5.10;;;17.00;99.90;;;;;;5019660;28;20197;-80
2021/08/18 10:01:17;;;;;;;7.20;4.73;;;17.30;99.90;;;;;;5026246;28;20186;-82
2021/08/18 10:03:48;;;;;;;7.70;5.10;;;17.20;99.90;;;;;;5014844;28;20703;-82
2021/08/18 10:09:39;;;;;;;6.37;4.60;;;17.50;99.90;;;;;;5019010;28;20182;-81
2021/08/18 10:12:06;;;;;;;7.53;4.60;;;17.50;99.90;;;;;;5029107;23;20622;-81
2021/08/18 10:14:33;;;;;;;7.70;4.40;;;17.20;99.90;;;;;;4969135;28;20220;-82
2021/08/18 10:17:02;;;;;;;5.93;4.83;;;17.50;99.90;;;;;;4994910;28;20534;-80
2021/08/18 10:19:33;;;;;;;7.40;4.60;;;17.70;99.90;;;;;;4982624;28;20627;-80
2021/08/18 10:22:03;;;;;;;6.13;5.53;;;17.70;99.90;;;;;;4970104;28;20184;-83
2021/08/18 10:24:38;;;;;;;11.00;5.37;;;17.80;99.90;;;;;;4981366;28;20184;-81
2021/08/18 10:27:05;;;;;;;7.23;5.03;;;18.00;99.90;;;;;;4964765;28;20239;-81
2021/08/18 10:29:33;;;;;;;6.50;4.70;;;18.20;99.90;;;;;;4963929;28;20219;-81
2021/08/18 10:32:03;;;;;;;5.70;4.60;;;18.30;99.90;;;;;;4966088;28;20183;-82
2021/08/18 10:34:56;;;;;;;7.13;4.33;;;18.40;99.90;;;;;;4981361;28;20204;-79
2021/08/18 10:37:23;;;;;;;5.93;4.07;;;18.50;99.90;;;;;;4964094;28;20721;-82
2021/08/18 10:39:52;;;;;;;7.00;4.10;;;18.60;99.90;;;;;;4971708;28;20177;-81
2021/08/18 10:42:43;;;;;;;3.87;3.33;;;18.80;99.90;;;;;;4961088;28;20201;-81
2021/08/18 10:45:18;;;;;;;3.87;3.47;;;18.80;99.90;;;;;;4986260;28;20231;-81
2021/08/18 10:47:44;;;;;;;5.00;3.90;;;18.80;99.90;;;;;;4971179;28;20251;-83
2021/08/18 10:50:12;;;;;;;6.37;4.40;;;18.90;99.90;;;;;;4962853;28;20184;-80
2021/08/18 10:52:41;;;;;;;7.47;4.70;;;18.90;99.90;;;;;;4948572;28;20208;-80
2021/08/18 10:55:10;;;;;;;3.27;2.97;;;18.90;99.90;;;;;;4979187;28;20212;-80
2021/08/18 10:57:47;;;;;;;4.67;3.70;;;18.80;99.90;;;;;;4980069;28;20184;-80
2021/08/18 11:00:44;;;;;;;3.90;3.40;;;18.80;99.90;;;;;;4966799;28;20211;-83
2021/08/18 11:03:13;;;;;;;4.97;3.77;;;18.90;99.90;;;;;;4964754;28;20204;-83
2021/08/18 11:05:38;;;;;;;3.53;3.23;;;19.00;99.90;;;;;;4975358;28;20212;-82
2021/08/18 11:08:26;;;;;;;3.77;3.37;;;19.10;99.90;;;;;;4984049;28;20268;-82
2021/08/18 11:10:55;;;;;;;4.37;3.27;;;19.30;99.90;;;;;;4966884;28;20177;-83
2021/08/18 11:13:58;;;;;;;4.00;3.07;;;19.30;99.90;;;;;;4969898;28;20279;-81
2021/08/18 11:16:31;;;;;;;8.57;3.87;;;19.30;99.90;;;;;;4984878;28;20188;-82
2021/08/18 11:19:23;;;;;;;6.97;4.13;;;19.30;99.90;;;;;;4976324;28;20231;-83
2021/08/18 11:21:49;;;;;;;4.30;3.90;;;19.50;99.90;;;;;;4974999;28;20275;-82
2021/08/18 11:24:17;;;;;;;4.03;3.00;;;19.60;99.90;;;;;;4975448;28;20262;-83
2021/08/18 11:26:45;;;;;;;4.03;2.87;;;19.80;99.90;;;;;;4983468;28;20274;-82
2021/08/18 11:29:19;;;;;;;3.60;2.87;;;20.00;99.90;;;;;;4980154;28;20200;-81
2021/08/18 11:31:49;;;;;;;5.47;3.30;;;20.00;99.90;;;;;;4979304;28;20183;-82
2021/08/18 11:34:28;;;;;;;3.03;2.67;;;20.10;99.90;;;;;;4961951;28;20732;-83
2021/08/18 11:37:04;;;;;;;5.63;3.30;;;20.10;99.90;;;;;;4984603;28;20199;-83
2021/08/18 11:39:37;;;;;;;3.47;3.07;;;20.20;99.90;;;;;;4938497;28;20267;-82
2021/08/18 11:42:18;;;;;;;5.67;3.10;;;20.10;99.90;;;;;;4981692;28;20618;-82
2021/08/18 11:44:45;;;;;;;4.40;3.17;;;20.20;99.90;;;;;;4960050;28;20180;-82
2021/08/18 11:47:16;;;;;;;2.83;2.53;;;20.40;99.90;;;;;;4963976;28;20715;-82
2021/08/18 11:49:43;;;;;;;4.30;3.07;;;20.50;99.90;;;;;;4951481;28;20184;-82
2021/08/18 11:52:19;;;;;;;4.10;3.27;;;20.60;99.90;;;;;;4982034;28;20283;-81
2021/08/18 11:55:11;;;;;;;3.47;2.80;;;20.80;99.90;;;;;;4938093;28;20271;-82
2021/08/18 11:57:36;;;;;;;3.33;3.00;;;21.00;99.90;;;;;;4957362;28;20256;-81
2021/08/18 12:00:06;;;;;;;2.93;2.73;;;20.90;99.90;;;;;;4970818;28;20262;-81
2021/08/18 12:02:33;;;;;;;6.10;2.93;;;21.10;99.90;;;;;;4972888;28;20666;-83
2021/08/18 12:05:04;;;;;;;4.80;2.80;;;21.10;99.90;;;;;;4978992;28;20260;-81
2021/08/18 12:07:34;;;;;;;5.87;2.90;;;21.00;99.90;;;;;;4963377;28;20187;-81
2021/08/18 12:10:18;;;;;;;3.10;2.70;;;21.10;99.90;;;;;;4978866;28;20181;-82
2021/08/18 12:12:45;;;;;;;2.80;2.50;;;21.10;99.90;;;;;;4969912;28;20211;-83
2021/08/18 12:15:15;;;;;;;3.63;2.33;;;21.20;99.90;;;;;;4978699;28;20200;-81
2021/08/18 12:17:45;;;;;;;4.37;2.57;;;21.20;99.90;;;;;;4965600;28;20602;-81
2021/08/18 12:20:30;;;;;;;3.63;2.63;;;21.40;99.90;;;;;;4965766;28;20263;-82
2021/08/18 12:23:00;;;;;;;2.87;2.57;;;21.60;99.90;;;;;;4978440;28;20197;-83
2021/08/18 12:25:32;;;;;;;2.50;2.30;;;21.90;99.90;;;;;;4981287;28;20192;-81
2021/08/18 12:28:12;;;;;;;4.27;2.37;;;21.90;99.90;;;;;;4981895;28;20634;-81
2021/08/18 12:31:02;;;;;;;8.77;2.57;;;21.80;99.90;;;;;;4981901;28;20670;-81
2021/08/18 12:33:28;;;;;;;2.70;2.33;;;21.90;99.90;;;;;;4938759;28;20221;-81
2021/08/18 12:36:08;;;;;;;4.93;2.73;;;21.90;99.90;;;;;;4981779;28;20207;-81
2021/08/18 12:38:34;;;;;;;2.90;2.13;;;22.20;99.90;;;;;;4983035;28;20191;-81
2021/08/18 12:41:07;;;;;;;2.70;1.87;;;22.30;99.90;;;;;;4981826;28;20563;-82
2021/08/18 12:43:33;;;;;;;2.60;2.10;;;22.30;99.90;;;;;;4964563;28;20211;-81
2021/08/18 12:46:01;;;;;;;2.50;1.60;;;22.20;99.90;;;;;;4981176;28;20176;-80
2021/08/18 12:48:29;;;;;;;2.30;2.00;;;22.20;99.90;;;;;;4981691;28;20199;-81
2021/08/18 12:50:57;;;;;;;2.47;1.87;;;22.40;99.90;;;;;;4981421;28;20237;-81
2021/08/18 12:53:22;;;;;;;4.97;1.83;;;22.60;99.90;;;;;;4964531;28;20255;-81